22:31
Airports
History
Links
Donate
Help keep this website running!
PayPal
Bitcoin
Information on this page is community maintained and may be outdated or inaccurate and is intended for reference only or PC simulator navigating.
Always use approved charts for navigating.
SNCW
CENTRO DE LANCAMENTO DE ALCANTARA
CENTRO DE LANCAMENTO DE ALCANTARA (SNCW)
Alcântara, Maranhão, Brazil (65)
(U)
Lat/Lng:2° 22' 22.75" S / 44° 23' 47.1" W
-2.372986 / -44.396417
Elevation:148'ft 45mMSL
ID / ICAO:SNCW
Runways:1
Longest:(09-27) 2,591.0m 8,501ft Asphalt
Distance To
Airport ID:
Nearby WeatherUpdated 06-28-17 22:00 GMT
Nearby weather at SBSL, Marechal Cunha Machado located 18.5 nautical miles from SNCW
Altimeter: 29.88
Visibility: 6.2 statute miles
Wind: 3 knots (230°)
Temp: 27°c 81°f
Humidity: 74.2%

METAR: SBSL 282200Z 23003KT 9999 FEW017 SCT080 27/22 Q1012

(Powered by phpweather)
Runway 09 / 27
Dimensions:2591 x 45.1m 8501' x 148'ft
Surface:Asphalt
Edge Lights:Low intensity
Runway 09 [A]Runway 27 [B]
Heading:072°TH 252°TH
Lat:
Lng:
2° 22' 35.3"S
44° 24' 27.3"W
2° 22' 10.2"S
44° 23' 6.9"W
User Notes and Comments
Google Map
Nearby Airports
(C) Marechal Cunha Machado 18.5 NM
SBSL (WX) SE 143°
(U) CAVU - Clube de Aviacao Ultraleve 19.3 NM
SIPB ESE 104°
(C) CORONEL ALEXANDRE RAPOSO 21.6 NM
SNOZ ESE 118°
(C) Guimaraes 24.2 NM
SNGM NW 321°
4 Antonio Guerreiro 25.3 NM
SNYW NW 316°
4 Sao Bento 38.5 NM
SNSB SW 233°
(C) Pinheiro 49.5 NM
SNYE W 261°
VFR Chart
Flight Planning at SkyVector.com